Terminal Aerodrome Forecast
Issued by NWS

Home | Current Version | Previous Version | Text Only | Print | Product List | Glossary On
Versions: 1 2 3 4 5 6 7 8 9 10 11 12 13 14 15 16 17 18 19 20 21 22 23 24 25 26 27 28 29 30 31 32 33
132
FTUS45 KPSR 290236 AAA
TAFPHX
TAF AMD
KPHX 290236Z 2903/2924 27010KT P6SM SCT100 SCT200
     FM290600 24006KT P6SM FEW100 SCT200
     FM291100 14006KT P6SM FEW100
     FM291800 27013KT P6SM SCT100=

USA.gov is the U.S. government's official web portal to all federal, state and local government web resources and services.